Time;durP1;ratioP1;P1;durP2;ratioP2;P2;SDS_P1;SDS_P2;PMS_P1;PMS_P2;Temp;Humidity;BMP_temperature;BMP_pressure;BME280_temperature;BME280_humidity;BME280_pressure;Samples;Min_cycle;Max_cycle;Signal;HPM_P1;HPM_P2
2022/10/17 00:00:14;;;;;;;6.70;4.18;;;;;;;20.29;53.22;101599.97;4973106;28;20031;-53
2022/10/17 00:02:40;;;;;;;14.45;4.72;;;;;;;20.52;53.59;101596.19;4970791;28;20081;-50
2022/10/17 00:05:07;;;;;;;10.43;4.57;;;;;;;20.43;54.04;101605.00;4973191;28;20027;-52
2022/10/17 00:07:33;;;;;;;8.93;4.30;;;;;;;20.46;54.23;101593.66;4964719;28;20030;-52
2022/10/17 00:09:59;;;;;;;17.52;4.82;;;;;;;20.43;53.79;101585.97;4973060;28;20051;-53
2022/10/17 00:12:25;;;;;;;7.57;4.47;;;;;;;20.56;53.71;101597.34;4998125;23;20058;-52
2022/10/17 00:14:52;;;;;;;11.88;4.43;;;;;;;20.30;55.03;101596.16;5004563;28;20033;-52
2022/10/17 00:17:18;;;;;;;7.80;4.20;;;;;;;20.16;54.83;101591.38;5004221;28;20030;-52
2022/10/17 00:19:44;;;;;;;8.75;4.20;;;;;;;20.24;54.66;101583.59;4996062;28;20105;-52
2022/10/17 00:22:11;;;;;;;10.23;4.30;;;;;;;20.13;54.86;101589.97;4992009;28;20426;-52
2022/10/17 00:24:37;;;;;;;7.22;4.35;;;;;;;20.12;54.58;101584.78;4981113;28;20081;-53
2022/10/17 00:27:04;;;;;;;10.05;4.03;;;;;;;20.11;54.54;101577.72;4999146;28;20073;-55
2022/10/17 00:29:30;;;;;;;8.93;4.13;;;;;;;20.13;54.55;101565.50;4990907;28;20022;-55
2022/10/17 00:31:57;;;;;;;8.50;4.60;;;;;;;19.91;55.89;101568.19;5000193;28;20506;-55
2022/10/17 00:34:24;;;;;;;10.27;4.35;;;;;;;19.94;55.77;101569.59;4995762;28;20463;-53
2022/10/17 00:36:50;;;;;;;10.23;4.60;;;;;;;19.97;55.77;101569.91;4996101;28;20437;-53
2022/10/17 00:39:16;;;;;;;10.48;4.75;;;;;;;19.99;55.56;101570.50;4996073;28;20035;-55
2022/10/17 00:41:42;;;;;;;9.13;4.65;;;;;;;19.76;55.85;101570.69;4996379;28;20080;-54
2022/10/17 00:44:30;;;;;;;9.60;5.32;;;;;;;19.61;56.54;101568.59;4996094;28;20026;-55
2022/10/17 00:47:00;;;;;;;13.05;5.30;;;;;;;19.57;56.65;101567.41;4995921;28;20041;-55
2022/10/17 00:49:29;;;;;;;16.13;5.38;;;;;;;19.43;57.18;101566.06;4995966;28;20053;-55
2022/10/17 00:52:00;;;;;;;11.07;5.43;;;;;;;19.44;57.02;101568.56;4989083;28;20431;-54
2022/10/17 00:54:39;;;;;;;8.75;4.60;;;;;;;19.30;57.44;101563.69;5002052;28;20360;-53
2022/10/17 00:57:06;;;;;;;8.40;5.13;;;;;;;19.49;57.14;101573.25;4990196;28;20045;-54
2022/10/17 00:59:35;;;;;;;11.40;4.72;;;;;;;19.34;57.11;101571.09;4994898;28;20042;-53
2022/10/17 01:02:13;;;;;;;8.30;4.28;;;;;;;19.30;57.16;101569.13;4983459;28;20030;-55
2022/10/17 01:04:43;;;;;;;13.40;5.55;;;;;;;19.09;57.79;101566.06;4995619;28;20027;-51
2022/10/17 01:07:10;;;;;;;12.00;5.88;;;;;;;19.11;57.76;101568.56;4994322;28;20130;-53
2022/10/17 01:09:37;;;;;;;12.23;5.28;;;;;;;18.80;58.42;101573.41;4972224;28;20019;-51
2022/10/17 01:12:26;;;;;;;11.15;5.85;;;;;;;18.73;59.03;101567.31;4975532;28;20053;-54
2022/10/17 01:14:55;;;;;;;9.43;5.70;;;;;;;18.86;58.54;101571.63;4995454;28;20077;-53
2022/10/17 01:17:29;;;;;;;10.75;4.82;;;;;;;18.68;59.49;101573.47;4985384;28;20379;-53
2022/10/17 01:20:26;;;;;;;9.98;4.93;;;;;;;18.73;59.59;101573.56;4990480;28;20030;-54
2022/10/17 01:23:21;;;;;;;9.43;5.50;;;;;;;18.61;60.53;101575.47;4979220;28;20031;-53
2022/10/17 01:25:58;;;;;;;11.10;5.20;;;;;;;18.67;61.39;101574.53;4973044;28;20035;-52
2022/10/17 01:29:08;;;;;;;11.45;5.40;;;;;;;18.55;61.72;101571.03;4977358;28;20118;-52
2022/10/17 01:31:46;;;;;;;10.10;5.30;;;;;;;18.49;61.80;101577.41;4951861;29;20506;-52
2022/10/17 01:34:38;;;;;;;9.75;5.20;;;;;;;18.45;62.41;101570.81;4967586;28;20105;-52
2022/10/17 01:37:16;;;;;;;12.02;5.03;;;;;;;18.35;62.32;101573.31;4972288;28;20034;-51
2022/10/17 01:40:13;;;;;;;11.40;5.05;;;;;;;18.34;62.62;101567.06;4995084;28;20085;-51
2022/10/17 01:43:29;;;;;;;9.25;4.78;;;;;;;18.10;63.55;101568.16;4969804;28;20054;-48
2022/10/17 01:46:02;;;;;;;9.73;5.45;;;;;;;18.31;63.00;101570.25;4984568;28;20046;-51
2022/10/17 01:48:37;;;;;;;13.15;5.03;;;;;;;18.03;63.74;101578.31;4980021;28;20023;-51
2022/10/17 01:51:10;;;;;;;;;;;;;;;18.03;63.50;101578.31;4975972;28;20427;-52
2022/10/17 01:53:45;;;;;;;9.02;4.90;;;;;;;18.07;63.14;101580.31;4975979;28;19918;-51
2022/10/17 01:56:14;;;;;;;11.50;5.47;;;;;;;17.89;63.75;101575.88;4975222;28;20467;-50
2022/10/17 01:58:46;;;;;;;15.63;5.78;;;;;;;17.90;63.88;101591.06;4975298;28;20027;-52
2022/10/17 02:01:13;;;;;;;10.77;4.85;;;;;;;17.76;64.08;101584.22;4956040;29;20074;-51
2022/10/17 02:03:42;;;;;;;14.35;5.88;;;;;;;17.72;64.26;101582.19;4955794;29;20114;-52
2022/10/17 02:06:08;;;;;;;11.77;5.70;;;;;;;17.73;64.34;101583.88;4955795;29;20023;-52
2022/10/17 02:08:43;;;;;;;9.38;5.50;;;;;;;17.75;64.13;101587.16;4968800;28;20035;-52
2022/10/17 02:11:22;;;;;;;13.57;6.30;;;;;;;17.71;63.64;101594.88;4975433;28;20399;-51
2022/10/17 02:14:07;;;;;;;14.10;6.30;;;;;;;17.45;64.62;101593.47;4975222;28;20035;-50
2022/10/17 02:16:47;;;;;;;11.40;5.70;;;;;;;17.47;64.22;101591.34;4975135;28;20089;-52
2022/10/17 02:19:50;;;;;;;7.43;4.90;;;;;;;17.45;64.70;101588.06;4987309;28;20027;-50
2022/10/17 02:22:19;;;;;;;14.43;4.97;;;;;;;17.41;64.71;101592.28;4966229;28;20077;-52
2022/10/17 02:25:10;;;;;;;9.10;5.15;;;;;;;17.33;65.35;101592.63;4974340;28;20039;-52
2022/10/17 02:27:57;;;;;;;10.98;5.15;;;;;;;17.34;65.33;101602.41;4979052;28;20133;-53
2022/10/17 02:30:44;;;;;;;10.15;4.72;;;;;;;17.30;65.37;101610.16;4994235;28;20491;-51
2022/10/17 02:33:23;;;;;;;14.18;5.40;;;;;;;17.17;66.10;101615.75;4993870;28;20509;-53
2022/10/17 02:35:53;;;;;;;12.32;5.55;;;;;;;17.22;65.78;101609.66;4989263;28;20027;-51
2022/10/17 02:38:20;;;;;;;14.65;5.72;;;;;;;17.12;66.50;101612.94;4964271;28;20428;-52
2022/10/17 02:40:50;;;;;;;10.25;5.75;;;;;;;17.16;66.53;101616.84;4954291;28;20051;-52
2022/10/17 02:43:17;;;;;;;12.23;5.85;;;;;;;17.09;66.81;101627.72;4957349;28;20513;-53
2022/10/17 02:45:43;;;;;;;11.07;6.43;;;;;;;17.09;66.51;101627.72;4993326;28;20033;-53
2022/10/17 02:48:21;;;;;;;13.57;6.75;;;;;;;17.06;66.74;101628.19;4993643;28;20030;-52
2022/10/17 02:51:24;;;;;;;14.43;7.68;;;;;;;17.10;66.80;101634.81;4978083;28;20027;-52
2022/10/17 02:54:03;;;;;;;14.38;8.30;;;;;;;16.99;66.38;101630.19;4974594;28;20038;-52
2022/10/17 02:56:34;;;;;;;13.38;7.68;;;;;;;16.89;66.92;101633.44;4974374;28;20038;-51
2022/10/17 02:59:02;;;;;;;14.65;8.30;;;;;;;16.84;66.88;101643.28;4974223;28;20023;-53
2022/10/17 03:01:29;;;;;;;13.65;6.68;;;;;;;16.81;66.87;101641.00;4980530;28;20035;-53
2022/10/17 03:04:07;;;;;;;13.50;7.10;;;;;;;16.71;67.20;101646.13;4973937;28;20116;-52
2022/10/17 03:06:33;;;;;;;12.57;6.82;;;;;;;16.72;66.89;101642.41;4972797;28;20385;-52
2022/10/17 03:09:00;;;;;;;14.02;6.70;;;;;;;16.55;67.55;101648.38;4972595;28;20030;-52
2022/10/17 03:11:26;;;;;;;13.82;7.20;;;;;;;16.59;66.78;101643.34;4973521;28;20137;-52
2022/10/17 03:13:53;;;;;;;20.60;7.47;;;;;;;16.39;67.40;101643.56;4973543;28;20035;-52
2022/10/17 03:16:19;;;;;;;11.07;6.85;;;;;;;16.43;66.97;101646.63;4992984;28;20496;-52
2022/10/17 03:18:45;;;;;;;8.70;6.30;;;;;;;16.37;67.06;101648.38;4991810;28;20042;-52
2022/10/17 03:21:11;;;;;;;15.18;6.78;;;;;;;16.24;67.92;101652.03;4972192;28;20113;-53
2022/10/17 03:23:37;;;;;;;13.60;6.20;;;;;;;16.24;68.46;101659.31;4983729;28;20034;-51
2022/10/17 03:26:06;;;;;;;14.05;6.70;;;;;;;16.22;68.56;101658.72;4978414;28;20476;-53
2022/10/17 03:28:33;;;;;;;11.25;6.60;;;;;;;16.21;69.39;101657.91;4973561;28;20081;-52
2022/10/17 03:31:09;;;;;;;9.65;6.10;;;;;;;16.40;69.55;101655.22;4980372;28;20022;-53
2022/10/17 03:33:36;;;;;;;10.10;6.78;;;;;;;16.14;70.57;101654.41;4992671;28;20054;-52
2022/10/17 03:36:20;;;;;;;15.50;6.90;;;;;;;16.15;70.35;101660.66;4981856;28;20487;-52
2022/10/17 03:38:47;;;;;;;11.82;6.22;;;;;;;16.20;70.64;101655.41;4973259;28;20120;-51
2022/10/17 03:41:13;;;;;;;10.93;6.32;;;;;;;15.94;71.73;101662.72;4979708;28;20033;-51
2022/10/17 03:43:39;;;;;;;13.60;6.68;;;;;;;16.15;70.58;101658.78;4992534;28;20038;-52
2022/10/17 03:46:06;;;;;;;10.82;6.70;;;;;;;16.01;71.00;101668.88;4990547;28;20088;-52
2022/10/17 03:48:33;;;;;;;10.80;6.28;;;;;;;16.04;70.75;101668.44;4992682;28;20038;-50
2022/10/17 03:51:09;;;;;;;13.95;7.35;;;;;;;16.07;70.78;101673.41;4990404;28;20030;-51
2022/10/17 03:53:35;;;;;;;18.20;7.03;;;;;;;15.87;71.37;101671.91;4989911;28;20390;-51
2022/10/17 03:56:12;;;;;;;11.93;6.70;;;;;;;15.83;71.63;101669.66;4977078;28;20015;-50
2022/10/17 03:58:39;;;;;;;11.73;7.03;;;;;;;16.00;70.84;101679.91;4980734;28;20039;-53
2022/10/17 04:01:07;;;;;;;12.48;6.95;;;;;;;15.23;72.54;101681.91;4992473;28;20426;-52
2022/10/17 04:03:33;;;;;;;10.50;6.85;;;;;;;14.90;73.01;101672.09;4990317;28;20089;-53
2022/10/17 04:06:01;;;;;;;9.68;6.80;;;;;;;14.95;72.77;101674.97;4991948;28;20117;-52
2022/10/17 04:08:27;;;;;;;11.38;6.63;;;;;;;15.09;72.33;101674.91;4990558;28;20544;-52
2022/10/17 04:11:01;;;;;;;12.73;6.78;;;;;;;15.37;70.82;101680.75;4992084;28;20042;-52
2022/10/17 04:13:28;;;;;;;13.35;7.25;;;;;;;15.37;71.19;101672.66;4989748;28;20042;-52
2022/10/17 04:15:55;;;;;;;14.25;6.70;;;;;;;15.25;71.13;101682.50;4955252;28;20023;-52
2022/10/17 04:18:22;;;;;;;14.05;6.97;;;;;;;15.31;70.98;101678.94;4957714;28;20030;-51
2022/10/17 04:20:48;;;;;;;14.13;7.25;;;;;;;15.17;71.00;101680.88;4972803;28;20039;-51
2022/10/17 04:23:14;;;;;;;13.68;6.78;;;;;;;15.25;70.58;101685.19;4974160;28;20038;-52
2022/10/17 04:25:40;;;;;;;12.07;6.75;;;;;;;15.16;70.75;101689.19;4992074;28;20375;-52
2022/10/17 04:28:06;;;;;;;13.27;6.78;;;;;;;15.25;70.43;101688.72;4985526;28;20059;-52
2022/10/17 04:30:33;;;;;;;10.77;6.65;;;;;;;14.98;71.22;101685.31;4984386;28;20121;-53
2022/10/17 04:32:59;;;;;;;11.50;6.57;;;;;;;14.96;70.90;101682.03;4987671;28;20030;-52
2022/10/17 04:35:25;;;;;;;12.32;6.70;;;;;;;14.49;72.85;101686.75;4991843;28;20510;-52
2022/10/17 04:37:51;;;;;;;11.30;6.60;;;;;;;14.78;71.78;101690.00;4983183;28;20030;-52
2022/10/17 04:40:17;;;;;;;14.60;6.90;;;;;;;14.79;71.58;101688.94;4972824;28;20030;-52
2022/10/17 04:42:44;;;;;;;12.48;7.43;;;;;;;14.86;71.22;101687.03;4971778;28;20034;-51
2022/10/17 04:45:10;;;;;;;14.15;6.45;;;;;;;14.64;71.99;101693.75;4972187;28;20030;-52
2022/10/17 04:47:36;;;;;;;11.90;6.90;;;;;;;14.55;72.59;101700.41;4974885;28;20483;-50
2022/10/17 04:50:03;;;;;;;15.82;7.65;;;;;;;14.54;72.48;101691.50;4992031;28;20046;-52
2022/10/17 04:52:30;;;;;;;14.00;6.60;;;;;;;14.51;72.61;101700.00;4989984;28;20045;-49
2022/10/17 04:54:57;;;;;;;11.80;6.68;;;;;;;13.99;74.62;101694.47;4990255;28;20124;-51
2022/10/17 04:57:23;;;;;;;10.02;6.03;;;;;;;14.24;73.29;101699.19;4990167;28;20503;-51
2022/10/17 04:59:50;;;;;;;16.35;6.88;;;;;;;14.24;73.57;101700.03;4991894;28;20030;-52
2022/10/17 05:02:16;;;;;;;12.35;6.25;;;;;;;14.16;73.63;101699.44;4989910;28;20113;-51
2022/10/17 05:04:42;;;;;;;11.85;6.93;;;;;;;14.18;73.51;101698.19;4993109;28;20475;-51
2022/10/17 05:07:08;;;;;;;9.73;6.20;;;;;;;14.25;73.24;101703.53;4987651;28;20034;-51
2022/10/17 05:09:35;;;;;;;14.85;6.95;;;;;;;14.21;73.23;101703.16;4993722;28;20022;-52
2022/10/17 05:12:01;;;;;;;9.65;6.55;;;;;;;14.20;73.30;101704.16;4995113;28;20061;-49
2022/10/17 05:14:27;;;;;;;10.68;5.80;;;;;;;14.21;73.42;101705.00;4989563;28;20085;-52
2022/10/17 05:16:53;;;;;;;11.50;6.22;;;;;;;14.19;73.47;101715.97;4995341;28;20019;-52
2022/10/17 05:19:19;;;;;;;11.25;5.95;;;;;;;14.09;73.38;101718.25;4992716;28;20058;-52
2022/10/17 05:21:46;;;;;;;10.40;6.55;;;;;;;13.91;73.75;101721.56;4995503;28;20383;-49
2022/10/17 05:24:13;;;;;;;12.20;6.60;;;;;;;13.83;74.45;101719.09;4975632;28;20078;-51
2022/10/17 05:26:40;;;;;;;9.15;6.22;;;;;;;14.02;73.88;101712.06;4994988;28;20413;-51
2022/10/17 05:29:06;;;;;;;11.00;6.47;;;;;;;14.10;73.46;101716.38;4993110;28;20122;-51
2022/10/17 05:31:32;;;;;;;14.98;6.68;;;;;;;14.02;73.09;101725.50;4995180;28;20386;-48
2022/10/17 05:34:02;;;;;;;12.88;6.32;;;;;;;13.35;76.22;101719.22;4990941;28;20034;-51
2022/10/17 05:36:29;;;;;;;13.00;6.68;;;;;;;13.32;76.90;101724.16;5001741;23;20059;-51
2022/10/17 05:38:55;;;;;;;13.80;7.30;;;;;;;13.10;77.71;101718.91;5008837;28;20042;-46
2022/10/17 05:41:21;;;;;;;12.20;6.53;;;;;;;13.42;76.38;101714.69;5002837;28;20458;-49
2022/10/17 05:43:49;;;;;;;13.75;6.75;;;;;;;13.48;76.08;101713.03;4994261;28;20027;-51
2022/10/17 05:46:15;;;;;;;11.43;6.40;;;;;;;13.49;75.74;101717.38;4993410;28;20034;-47
2022/10/17 05:48:41;;;;;;;11.05;6.15;;;;;;;13.34;76.58;101708.66;4994771;28;20033;-51
2022/10/17 05:51:09;;;;;;;14.48;7.15;;;;;;;13.39;76.70;101715.09;5008460;28;20034;-51
2022/10/17 05:53:38;;;;;;;10.50;5.85;;;;;;;13.36;76.85;101710.13;5013869;28;20080;-51
2022/10/17 05:56:07;;;;;;;13.85;6.93;;;;;;;13.18;77.54;101717.91;5004107;28;20053;-51
2022/10/17 05:58:36;;;;;;;12.82;6.75;;;;;;;13.14;78.48;101717.47;4994484;28;20026;-52
2022/10/17 06:01:05;;;;;;;12.57;6.57;;;;;;;13.04;78.35;101716.19;5006363;28;20041;-52
2022/10/17 06:03:32;;;;;;;12.27;6.35;;;;;;;13.09;78.17;101719.91;5013828;28;20109;-50
2022/10/17 06:06:12;;;;;;;14.73;6.82;;;;;;;13.14;77.90;101714.78;5011691;28;20052;-49
2022/10/17 06:08:39;;;;;;;15.02;6.95;;;;;;;12.87;78.91;101721.88;5012383;28;20026;-52
2022/10/17 06:11:05;;;;;;;14.60;7.15;;;;;;;12.72;79.17;101717.72;4999391;28;20125;-51
2022/10/17 06:13:32;;;;;;;14.52;7.05;;;;;;;12.73;79.33;101717.50;4987194;28;20030;-51
2022/10/17 06:15:58;;;;;;;12.13;6.88;;;;;;;12.88;78.75;101712.81;4994673;28;20033;-51
2022/10/17 06:18:25;;;;;;;13.85;6.63;;;;;;;12.80;79.08;101710.28;5007015;28;20040;-49
2022/10/17 06:20:51;;;;;;;11.38;6.85;;;;;;;12.90;78.77;101721.50;4994167;28;20030;-48
2022/10/17 06:23:18;;;;;;;12.30;6.57;;;;;;;12.91;78.47;101714.28;4996567;28;20045;-51
2022/10/17 06:25:45;;;;;;;13.63;6.80;;;;;;;13.05;77.59;101717.84;5012195;28;20619;-50
2022/10/17 06:28:11;;;;;;;12.25;6.13;;;;;;;12.97;77.82;101723.38;5011585;28;20037;-49
2022/10/17 06:30:39;;;;;;;11.18;6.50;;;;;;;12.85;78.11;101709.69;5013481;28;20030;-51
2022/10/17 06:33:06;;;;;;;16.45;6.78;;;;;;;12.87;78.21;101713.81;5011102;28;20038;-51
2022/10/17 06:35:32;;;;;;;13.75;6.70;;;;;;;12.87;78.10;101718.38;4993434;28;20045;-51
2022/10/17 06:37:58;;;;;;;9.80;6.45;;;;;;;12.72;78.54;101715.03;4993889;28;20026;-48
2022/10/17 06:40:24;;;;;;;9.57;6.43;;;;;;;12.79;78.43;101710.50;4992513;28;20030;-49
2022/10/17 06:42:51;;;;;;;13.77;6.75;;;;;;;12.86;78.04;101714.03;4993615;28;20051;-48
2022/10/17 06:45:17;;;;;;;10.70;6.50;;;;;;;12.75;78.83;101715.44;5009544;28;20033;-50
2022/10/17 06:47:43;;;;;;;13.82;6.05;;;;;;;12.90;78.02;101708.06;5011290;28;20021;-47
2022/10/17 06:50:09;;;;;;;8.85;5.50;;;;;;;12.93;77.95;101715.72;5013298;28;20053;-52
2022/10/17 06:52:35;;;;;;;11.75;6.72;;;;;;;12.75;78.49;101715.44;5011575;28;20041;-51
2022/10/17 06:55:01;;;;;;;16.55;7.25;;;;;;;12.57;79.27;101713.28;5012356;28;20030;-48
2022/10/17 06:57:28;;;;;;;12.65;7.18;;;;;;;12.46;79.95;101713.00;5011227;28;20036;-51
2022/10/17 06:59:54;;;;;;;13.88;7.82;;;;;;;12.06;82.00;101715.41;5012879;28;20021;-52
2022/10/17 07:02:22;;;;;;;13.63;7.82;;;;;;;12.02;82.60;101706.91;5008717;28;20503;-50
2022/10/17 07:04:48;;;;;;;12.93;6.50;;;;;;;12.19;81.63;101714.66;5012594;28;20470;-51
2022/10/17 07:07:15;;;;;;;10.10;6.15;;;;;;;12.37;80.58;101718.50;5010912;28;20498;-52
2022/10/17 07:09:41;;;;;;;15.63;7.45;;;;;;;12.22;81.24;101715.13;5011588;28;20037;-51
2022/10/17 07:12:07;;;;;;;14.55;7.32;;;;;;;12.25;81.40;101724.63;5010817;28;20026;-51
2022/10/17 07:14:34;;;;;;;15.50;7.50;;;;;;;12.29;80.88;101728.59;4982007;28;20386;-51
2022/10/17 07:17:01;;;;;;;13.32;6.88;;;;;;;12.35;80.88;101725.13;4981192;28;20084;-49
2022/10/17 07:19:28;;;;;;;13.30;6.85;;;;;;;12.18;81.28;101724.56;5012689;28;20026;-51
2022/10/17 07:21:54;;;;;;;10.77;6.43;;;;;;;12.22;81.18;101731.22;5001611;28;20050;-52
2022/10/17 07:24:20;;;;;;;12.00;6.63;;;;;;;12.11;81.46;101737.13;4992542;28;20065;-51
2022/10/17 07:26:46;;;;;;;15.38;7.05;;;;;;;11.86;82.70;101737.50;4999974;28;20559;-51
2022/10/17 07:29:13;;;;;;;16.65;7.15;;;;;;;11.77;83.47;101740.47;5012405;28;20029;-50
2022/10/17 07:31:39;;;;;;;15.82;6.75;;;;;;;11.69;83.87;101743.31;5010592;28;20022;-51
2022/10/17 07:34:05;;;;;;;13.30;6.95;;;;;;;11.67;83.97;101740.00;5012077;28;20037;-51
2022/10/17 07:36:31;;;;;;;13.70;7.35;;;;;;;11.72;83.32;101727.66;5010311;28;20050;-52
2022/10/17 07:38:57;;;;;;;15.60;7.22;;;;;;;11.65;84.17;101732.13;5010110;28;20026;-51
2022/10/17 07:41:23;;;;;;;9.30;6.47;;;;;;;11.73;83.77;101740.06;5012083;28;20030;-51
2022/10/17 07:43:50;;;;;;;12.07;7.05;;;;;;;11.78;83.15;101740.31;5010240;28;20386;-49
2022/10/17 07:46:16;;;;;;;14.63;6.90;;;;;;;11.89;82.49;101744.38;5009853;28;21208;-50
2022/10/17 07:48:42;;;;;;;10.45;6.63;;;;;;;11.98;82.29;101751.25;5012116;28;20041;-50
2022/10/17 07:51:09;;;;;;;12.85;6.93;;;;;;;12.06;81.58;101742.25;5010254;28;20375;-51
2022/10/17 07:53:39;;;;;;;10.75;6.50;;;;;;;12.02;81.50;101740.97;5012315;28;20500;-51
2022/10/17 07:56:07;;;;;;;13.93;7.18;;;;;;;11.89;82.04;101734.47;5000964;28;20165;-49
2022/10/17 07:58:34;;;;;;;13.13;6.88;;;;;;;11.99;81.63;101739.47;5012063;28;20030;-47
2022/10/17 08:01:06;;;;;;;15.02;7.50;;;;;;;11.62;83.41;101737.88;5010051;28;20038;-50
2022/10/17 08:03:33;;;;;;;15.90;6.97;;;;;;;11.52;84.07;101742.72;5012026;28;20497;-47
2022/10/17 08:06:00;;;;;;;13.48;7.15;;;;;;;11.56;83.83;101741.31;4994918;28;20061;-51
2022/10/17 08:08:27;;;;;;;12.80;6.30;;;;;;;11.80;82.62;101735.56;4992328;28;20057;-47
2022/10/17 08:10:54;;;;;;;12.32;6.40;;;;;;;11.98;82.06;101734.31;5008225;28;20034;-49
2022/10/17 08:13:21;;;;;;;12.13;6.47;;;;;;;11.94;81.55;101738.41;5006676;28;20032;-51
2022/10/17 08:15:48;;;;;;;16.48;6.10;;;;;;;12.07;81.25;101733.16;5011648;28;20026;-49
2022/10/17 08:18:15;;;;;;;11.82;5.97;;;;;;;12.09;81.17;101733.78;5004640;23;20039;-49
2022/10/17 08:20:41;;;;;;;12.15;6.00;;;;;;;11.98;81.37;101735.13;4991991;28;20117;-51
2022/10/17 08:23:08;;;;;;;10.85;6.63;;;;;;;11.96;81.60;101739.88;4991734;28;20121;-48
2022/10/17 08:25:36;;;;;;;10.18;6.07;;;;;;;12.08;80.97;101745.56;4992502;28;20030;-50
2022/10/17 08:28:02;;;;;;;12.23;5.38;;;;;;;12.17;80.38;101739.03;4991594;28;20471;-47
2022/10/17 08:30:29;;;;;;;10.90;5.93;;;;;;;12.19;79.97;101736.13;4992092;28;20041;-51
2022/10/17 08:32:56;;;;;;;14.07;6.43;;;;;;;12.01;80.34;101736.63;4991268;28;20034;-50
2022/10/17 08:35:22;;;;;;;9.50;6.03;;;;;;;12.04;80.20;101734.38;4991664;28;20105;-50
2022/10/17 08:37:48;;;;;;;10.52;5.93;;;;;;;11.92;80.30;101740.44;4991220;28;20185;-51
2022/10/17 08:40:26;;;;;;;26.25;6.72;;;;;;;11.87;80.62;101735.66;4993036;28;20033;-51
2022/10/17 08:43:07;;;;;;;14.15;6.32;;;;;;;11.91;80.42;101733.44;4995767;28;20034;-51
2022/10/17 08:45:48;;;;;;;8.90;5.35;;;;;;;11.54;81.57;101737.97;4994706;28;20102;-49
2022/10/17 08:48:17;;;;;;;11.95;6.78;;;;;;;11.55;81.95;101740.50;4995677;28;20375;-51
2022/10/17 08:50:58;;;;;;;10.63;6.13;;;;;;;11.69;81.12;101736.09;4994958;28;20471;-47
2022/10/17 08:54:09;;;;;;;14.05;5.75;;;;;;;11.94;80.12;101741.06;4995492;28;20031;-48
2022/10/17 08:56:43;;;;;;;13.20;6.20;;;;;;;11.51;82.18;101747.25;4989502;28;20498;-51
2022/10/17 08:59:24;;;;;;;11.82;6.55;;;;;;;11.12;84.30;101744.94;4995745;28;20030;-51
2022/10/17 09:01:56;;;;;;;11.45;6.40;;;;;;;10.96;85.59;101745.16;4994956;28;20458;-49
2022/10/17 09:04:32;;;;;;;11.55;6.53;;;;;;;11.10;85.26;101746.97;4995186;28;20030;-48
2022/10/17 09:07:13;;;;;;;20.42;6.85;;;;;;;10.88;86.75;101753.28;4994440;28;20093;-47
2022/10/17 09:09:59;;;;;;;11.30;6.38;;;;;;;10.97;86.54;101755.66;4995391;28;20062;-47
2022/10/17 09:12:59;;;;;;;10.88;6.88;;;;;;;11.17;85.12;101752.44;4946468;28;20144;-50
2022/10/17 09:16:06;;;;;;;9.38;5.82;;;;;;;11.16;85.64;101750.75;4979307;28;20080;-48
2022/10/17 09:18:45;;;;;;;14.10;6.93;;;;;;;11.32;85.15;101753.22;4994988;28;20133;-51
2022/10/17 09:21:40;;;;;;;14.35;6.35;;;;;;;11.33;84.64;101750.38;4994412;28;20038;-50
2022/10/17 09:24:17;;;;;;;12.20;6.28;;;;;;;11.18;84.86;101754.09;4995016;28;20030;-48
2022/10/17 09:26:45;;;;;;;14.93;5.97;;;;;;;11.46;83.80;101759.56;4994253;28;20030;-51
2022/10/17 09:29:22;;;;;;;12.07;6.53;;;;;;;11.50;83.21;101753.63;4994138;28;20046;-50
2022/10/17 09:32:01;;;;;;;13.73;6.60;;;;;;;11.43;82.93;101752.72;4989239;28;20093;-49
2022/10/17 09:34:30;;;;;;;10.73;6.25;;;;;;;11.30;83.79;101756.09;4993800;28;20065;-51
2022/10/17 09:37:01;;;;;;;11.02;6.40;;;;;;;11.41;83.26;101753.94;4994731;28;20026;-48
2022/10/17 09:39:31;;;;;;;10.73;5.93;;;;;;;11.26;84.09;101754.78;4993808;28;20049;-48
2022/10/17 09:42:00;;;;;;;15.13;6.10;;;;;;;11.53;82.98;101755.94;4994679;28;20029;-49
2022/10/17 09:44:34;;;;;;;14.05;6.68;;;;;;;11.62;82.39;101759.34;4993685;28;20034;-50
2022/10/17 09:47:12;;;;;;;11.95;6.20;;;;;;;11.64;82.26;101757.28;4982917;28;20066;-51
2022/10/17 09:49:41;;;;;;;12.38;6.13;;;;;;;11.75;81.58;101762.13;4993631;28;20046;-51
2022/10/17 09:52:19;;;;;;;9.25;5.20;;;;;;;11.50;81.12;101766.22;4994690;28;20065;-52
2022/10/17 09:55:13;;;;;;;11.30;5.95;;;;;;;12.04;80.03;101763.06;4993357;28;20038;-52
2022/10/17 09:58:02;;;;;;;10.05;5.65;;;;;;;11.86;79.94;101760.84;4980688;28;20050;-51
2022/10/17 10:00:30;;;;;;;11.68;6.20;;;;;;;11.81;80.01;101755.19;4994466;28;20101;-51
2022/10/17 10:03:19;;;;;;;13.23;5.50;;;;;;;11.80;79.83;101751.66;4992432;28;20386;-51
2022/10/17 10:05:58;;;;;;;13.48;5.82;;;;;;;11.54;80.98;101754.91;4994388;28;20032;-49
2022/10/17 10:08:32;;;;;;;10.95;6.30;;;;;;;11.60;80.61;101753.31;4994392;28;20041;-50
2022/10/17 10:11:03;;;;;;;13.23;6.47;;;;;;;11.54;80.34;101757.56;4976998;28;20030;-48
2022/10/17 10:13:31;;;;;;;8.30;5.68;;;;;;;11.54;80.21;101756.75;4993100;28;20062;-47
2022/10/17 10:16:31;;;;;;;13.90;5.93;;;;;;;11.55;80.26;101753.91;4993677;28;20041;-51
2022/10/17 10:18:57;;;;;;;14.50;6.95;;;;;;;11.31;81.33;101755.06;4975667;28;20089;-49
2022/10/17 10:21:26;;;;;;;11.27;6.47;;;;;;;11.20;82.13;101750.19;4993240;28;20466;-50
2022/10/17 10:24:15;;;;;;;14.50;7.15;;;;;;;11.40;81.57;101746.91;4993468;28;20030;-51
2022/10/17 10:26:49;;;;;;;10.15;5.88;;;;;;;11.50;81.01;101747.44;4993024;28;20033;-50
2022/10/17 10:29:31;;;;;;;12.73;5.93;;;;;;;11.56;80.44;101752.06;4994062;28;20026;-52
2022/10/17 10:32:15;;;;;;;11.68;7.07;;;;;;;11.12;82.64;101742.25;4992964;28;20034;-51
2022/10/17 10:35:06;;;;;;;11.43;6.82;;;;;;;10.60;86.22;101740.53;4993656;28;20056;-52
2022/10/17 10:37:44;;;;;;;13.65;7.10;;;;;;;10.50;88.74;101734.63;4993411;28;20073;-51
2022/10/17 10:40:21;;;;;;;14.10;7.00;;;;;;;10.36;89.23;101728.25;4991984;28;20032;-49
2022/10/17 10:42:54;;;;;;;14.45;7.57;;;;;;;10.62;88.45;101729.66;4993625;28;20065;-47
2022/10/17 10:45:42;;;;;;;11.23;6.47;;;;;;;10.79;86.98;101731.94;4992542;28;20101;-49
2022/10/17 10:48:27;;;;;;;14.07;7.25;;;;;;;10.69;86.07;101726.03;4992288;28;20495;-49
2022/10/17 10:50:59;;;;;;;17.37;7.03;;;;;;;10.92;85.60;101723.25;4992456;28;20023;-49
2022/10/17 10:53:48;;;;;;;12.43;6.32;;;;;;;10.94;85.37;101720.38;4992965;28;20264;-48
2022/10/17 10:56:17;;;;;;;13.50;5.57;;;;;;;11.07;84.68;101731.28;4975174;28;20053;-51
2022/10/17 10:58:53;;;;;;;11.50;6.88;;;;;;;11.22;84.31;101729.41;4992355;28;20050;-51
2022/10/17 11:01:24;;;;;;;;;;;;;;;11.25;84.33;101723.66;4992614;28;20050;-48
2022/10/17 11:04:13;;;;;;;14.82;6.93;;;;;;;10.95;85.79;101722.06;4992481;28;19924;-51
2022/10/17 11:06:43;;;;;;;10.82;7.13;;;;;;;10.82;87.92;101720.84;4992336;28;20363;-50
2022/10/17 11:09:16;;;;;;;17.70;7.55;;;;;;;10.67;88.88;101722.72;4993797;28;20030;-51
2022/10/17 11:11:47;;;;;;;12.18;6.30;;;;;;;10.84;88.18;101720.69;4986835;28;20054;-49
2022/10/17 11:14:48;;;;;;;10.50;6.53;;;;;;;10.78;88.14;101716.09;4991679;28;20034;-47
2022/10/17 11:17:32;;;;;;;15.38;7.40;;;;;;;10.96;86.80;101718.38;4993038;28;20041;-50
2022/10/17 11:20:03;;;;;;;11.00;6.35;;;;;;;10.88;86.51;101711.25;4992016;28;20089;-47
2022/10/17 11:22:51;;;;;;;11.85;7.05;;;;;;;10.82;86.03;101712.81;4973542;28;20031;-51
2022/10/17 11:25:34;;;;;;;13.05;6.57;;;;;;;10.81;86.78;101704.97;4976270;28;20022;-47
2022/10/17 11:28:02;;;;;;;12.30;6.90;;;;;;;10.56;87.59;101707.13;4992228;28;20038;-51
2022/10/17 11:30:39;;;;;;;11.02;6.40;;;;;;;10.32;88.89;101701.00;4991295;28;20101;-48
2022/10/17 11:33:06;;;;;;;9.95;7.22;;;;;;;10.31;88.56;101706.53;4982872;28;20035;-49
2022/10/17 11:35:40;;;;;;;12.18;6.65;;;;;;;10.54;88.23;101706.47;4992699;28;20037;-51
2022/10/17 11:38:43;;;;;;;8.67;6.20;;;;;;;10.78;87.12;101703.53;4981307;28;20033;-46
2022/10/17 11:41:18;;;;;;;14.13;6.88;;;;;;;10.88;86.12;101700.53;4990422;28;20354;-48